sensor_id;sensor_type;location;lat;lon;timestamp;temperature;humidity
30459;DHT22;17254;50.976;7.034;2022-07-05T00:00:09;14.70;99.90
30459;DHT22;17254;50.976;7.034;2022-07-05T00:00:46;14.70;99.90
30459;DHT22;17254;50.976;7.034;2022-07-05T00:01:17;14.70;99.90
30459;DHT22;17254;50.976;7.034;2022-07-05T00:01:48;14.70;99.90
30459;DHT22;17254;50.976;7.034;2022-07-05T00:02:20;14.60;99.90
30459;DHT22;17254;50.976;7.034;2022-07-05T00:02:51;14.60;99.90
30459;DHT22;17254;50.976;7.034;2022-07-05T00:03:22;14.60;99.90
30459;DHT22;17254;50.976;7.034;2022-07-05T00:03:53;14.60;99.90
30459;DHT22;17254;50.976;7.034;2022-07-05T00:04:25;14.50;99.90
30459;DHT22;17254;50.976;7.034;2022-07-05T00:04:56;14.50;99.90
30459;DHT22;17254;50.976;7.034;2022-07-05T00:05:27;14.50;99.90
30459;DHT22;17254;50.976;7.034;2022-07-05T00:05:59;14.50;99.90
30459;DHT22;17254;50.976;7.034;2022-07-05T00:06:30;14.40;99.90
30459;DHT22;17254;50.976;7.034;2022-07-05T00:07:03;14.40;99.90
30459;DHT22;17254;50.976;7.034;2022-07-05T00:07:49;14.50;99.90
30459;DHT22;17254;50.976;7.034;2022-07-05T00:08:20;14.40;99.90
30459;DHT22;17254;50.976;7.034;2022-07-05T00:08:52;14.40;99.90
30459;DHT22;17254;50.976;7.034;2022-07-05T00:09:23;14.40;99.90
30459;DHT22;17254;50.976;7.034;2022-07-05T00:09:55;14.40;99.90
30459;DHT22;17254;50.976;7.034;2022-07-05T00:10:27;14.40;99.90
30459;DHT22;17254;50.976;7.034;2022-07-05T00:10:59;14.30;99.90
30459;DHT22;17254;50.976;7.034;2022-07-05T00:11:30;14.30;99.90
30459;DHT22;17254;50.976;7.034;2022-07-05T00:12:01;14.30;99.90
30459;DHT22;17254;50.976;7.034;2022-07-05T00:12:33;14.30;99.90
30459;DHT22;17254;50.976;7.034;2022-07-05T00:13:05;14.20;99.90
30459;DHT22;17254;50.976;7.034;2022-07-05T00:13:36;14.20;99.90
30459;DHT22;17254;50.976;7.034;2022-07-05T00:14:08;14.30;99.90
30459;DHT22;17254;50.976;7.034;2022-07-05T00:14:40;14.20;99.90
30459;DHT22;17254;50.976;7.034;2022-07-05T00:15:11;14.30;99.90
30459;DHT22;17254;50.976;7.034;2022-07-05T00:15:44;14.30;99.90
30459;DHT22;17254;50.976;7.034;2022-07-05T00:16:15;14.50;99.90
30459;DHT22;17254;50.976;7.034;2022-07-05T00:16:47;14.50;99.90
30459;DHT22;17254;50.976;7.034;2022-07-05T00:17:18;14.40;99.90
30459;DHT22;17254;50.976;7.034;2022-07-05T00:17:49;14.30;99.90
30459;DHT22;17254;50.976;7.034;2022-07-05T00:18:21;14.30;99.90
30459;DHT22;17254;50.976;7.034;2022-07-05T00:18:52;14.20;99.90
30459;DHT22;17254;50.976;7.034;2022-07-05T00:19:24;14.20;99.90
30459;DHT22;17254;50.976;7.034;2022-07-05T00:19:55;14.20;99.90
30459;DHT22;17254;50.976;7.034;2022-07-05T00:20:26;14.10;99.90
30459;DHT22;17254;50.976;7.034;2022-07-05T00:20:57;14.10;99.90
30459;DHT22;17254;50.976;7.034;2022-07-05T00:21:30;14.10;99.90
30459;DHT22;17254;50.976;7.034;2022-07-05T00:22:01;14.20;99.90
30459;DHT22;17254;50.976;7.034;2022-07-05T00:22:32;14.30;99.90
30459;DHT22;17254;50.976;7.034;2022-07-05T00:23:04;14.40;99.90
30459;DHT22;17254;50.976;7.034;2022-07-05T00:23:35;14.30;99.90
30459;DHT22;17254;50.976;7.034;2022-07-05T00:24:06;14.30;99.90
30459;DHT22;17254;50.976;7.034;2022-07-05T00:24:37;14.30;99.90
30459;DHT22;17254;50.976;7.034;2022-07-05T00:25:10;14.40;99.90
30459;DHT22;17254;50.976;7.034;2022-07-05T00:25:41;14.30;99.90
30459;DHT22;17254;50.976;7.034;2022-07-05T00:26:12;14.20;99.90
30459;DHT22;17254;50.976;7.034;2022-07-05T00:26:44;14.20;99.90
30459;DHT22;17254;50.976;7.034;2022-07-05T00:27:15;14.20;99.90
30459;DHT22;17254;50.976;7.034;2022-07-05T00:27:45;14.20;99.90
30459;DHT22;17254;50.976;7.034;2022-07-05T00:28:18;14.20;99.90
30459;DHT22;17254;50.976;7.034;2022-07-05T00:28:48;14.10;99.90
30459;DHT22;17254;50.976;7.034;2022-07-05T00:29:19;14.10;99.90
30459;DHT22;17254;50.976;7.034;2022-07-05T00:29:51;14.10;99.90
30459;DHT22;17254;50.976;7.034;2022-07-05T00:30:22;14.00;99.90
30459;DHT22;17254;50.976;7.034;2022-07-05T00:30:55;14.00;99.90
30459;DHT22;17254;50.976;7.034;2022-07-05T00:31:27;14.00;99.90
30459;DHT22;17254;50.976;7.034;2022-07-05T00:31:58;14.00;99.90
30459;DHT22;17254;50.976;7.034;2022-07-05T00:32:29;13.90;99.90
30459;DHT22;17254;50.976;7.034;2022-07-05T00:33:01;14.00;99.90
30459;DHT22;17254;50.976;7.034;2022-07-05T00:33:32;13.90;99.90
30459;DHT22;17254;50.976;7.034;2022-07-05T00:34:03;13.90;99.90
30459;DHT22;17254;50.976;7.034;2022-07-05T00:34:35;13.90;99.90
30459;DHT22;17254;50.976;7.034;2022-07-05T00:35:07;13.90;99.90
30459;DHT22;17254;50.976;7.034;2022-07-05T00:35:38;13.90;99.90
30459;DHT22;17254;50.976;7.034;2022-07-05T00:36:10;13.90;99.90
30459;DHT22;17254;50.976;7.034;2022-07-05T00:36:41;13.90;99.90
30459;DHT22;17254;50.976;7.034;2022-07-05T00:37:12;13.90;99.90
30459;DHT22;17254;50.976;7.034;2022-07-05T00:37:44;13.90;99.90
30459;DHT22;17254;50.976;7.034;2022-07-05T00:38:15;13.90;99.90
30459;DHT22;17254;50.976;7.034;2022-07-05T00:38:46;13.80;99.90
30459;DHT22;17254;50.976;7.034;2022-07-05T00:39:18;13.80;99.90
30459;DHT22;17254;50.976;7.034;2022-07-05T00:39:49;13.90;99.90
30459;DHT22;17254;50.976;7.034;2022-07-05T00:40:20;13.90;99.90
30459;DHT22;17254;50.976;7.034;2022-07-05T00:40:52;13.90;99.90
30459;DHT22;17254;50.976;7.034;2022-07-05T00:41:24;13.90;99.90
30459;DHT22;17254;50.976;7.034;2022-07-05T00:41:55;13.90;99.90
30459;DHT22;17254;50.976;7.034;2022-07-05T00:42:28;13.90;99.90
30459;DHT22;17254;50.976;7.034;2022-07-05T00:42:59;13.90;99.90
30459;DHT22;17254;50.976;7.034;2022-07-05T00:43:31;13.90;99.90
30459;DHT22;17254;50.976;7.034;2022-07-05T00:44:04;13.90;99.90
30459;DHT22;17254;50.976;7.034;2022-07-05T00:44:37;14.00;99.90
30459;DHT22;17254;50.976;7.034;2022-07-05T00:45:10;14.00;99.90
30459;DHT22;17254;50.976;7.034;2022-07-05T00:45:41;14.00;99.90
30459;DHT22;17254;50.976;7.034;2022-07-05T00:46:14;14.00;99.90
30459;DHT22;17254;50.976;7.034;2022-07-05T00:46:46;14.00;99.90
30459;DHT22;17254;50.976;7.034;2022-07-05T00:47:17;14.00;99.90
30459;DHT22;17254;50.976;7.034;2022-07-05T00:47:48;14.00;99.90
30459;DHT22;17254;50.976;7.034;2022-07-05T00:48:20;14.00;99.90
30459;DHT22;17254;50.976;7.034;2022-07-05T00:48:51;14.00;99.90
30459;DHT22;17254;50.976;7.034;2022-07-05T00:49:22;14.00;99.90
30459;DHT22;17254;50.976;7.034;2022-07-05T00:49:54;14.00;99.90
30459;DHT22;17254;50.976;7.034;2022-07-05T00:50:25;14.00;99.90
30459;DHT22;17254;50.976;7.034;2022-07-05T00:50:56;14.00;99.90
30459;DHT22;17254;50.976;7.034;2022-07-05T00:51:30;14.00;99.90
30459;DHT22;17254;50.976;7.034;2022-07-05T00:52:03;14.10;99.90
30459;DHT22;17254;50.976;7.034;2022-07-05T00:52:34;14.10;99.90
30459;DHT22;17254;50.976;7.034;2022-07-05T00:53:05;14.10;99.90
30459;DHT22;17254;50.976;7.034;2022-07-05T00:53:37;14.10;99.90
30459;DHT22;17254;50.976;7.034;2022-07-05T00:54:08;14.10;99.90
30459;DHT22;17254;50.976;7.034;2022-07-05T00:54:40;14.10;99.90
30459;DHT22;17254;50.976;7.034;2022-07-05T00:55:11;14.00;99.90
30459;DHT22;17254;50.976;7.034;2022-07-05T00:55:43;14.10;99.90
30459;DHT22;17254;50.976;7.034;2022-07-05T00:56:15;14.10;99.90
30459;DHT22;17254;50.976;7.034;2022-07-05T00:56:46;14.00;99.90
30459;DHT22;17254;50.976;7.034;2022-07-05T00:57:20;14.00;99.90
30459;DHT22;17254;50.976;7.034;2022-07-05T00:57:52;14.00;99.90
30459;DHT22;17254;50.976;7.034;2022-07-05T00:58:25;14.00;99.90
30459;DHT22;17254;50.976;7.034;2022-07-05T00:58:57;14.10;99.90
30459;DHT22;17254;50.976;7.034;2022-07-05T00:59:29;14.20;99.90
30459;DHT22;17254;50.976;7.034;2022-07-05T01:00:03;14.20;99.90
30459;DHT22;17254;50.976;7.034;2022-07-05T01:00:35;14.20;99.90
30459;DHT22;17254;50.976;7.034;2022-07-05T01:01:09;14.20;99.90
30459;DHT22;17254;50.976;7.034;2022-07-05T01:01:42;14.30;99.90
30459;DHT22;17254;50.976;7.034;2022-07-05T01:02:13;14.30;99.90
30459;DHT22;17254;50.976;7.034;2022-07-05T01:02:45;14.30;99.90
30459;DHT22;17254;50.976;7.034;2022-07-05T01:03:16;14.20;99.90
30459;DHT22;17254;50.976;7.034;2022-07-05T01:03:48;14.40;99.90
30459;DHT22;17254;50.976;7.034;2022-07-05T01:04:19;14.30;99.90
30459;DHT22;17254;50.976;7.034;2022-07-05T01:04:50;14.30;99.90
30459;DHT22;17254;50.976;7.034;2022-07-05T01:05:23;14.20;99.90
30459;DHT22;17254;50.976;7.034;2022-07-05T01:05:54;14.40;99.90
30459;DHT22;17254;50.976;7.034;2022-07-05T01:06:25;14.30;99.90
30459;DHT22;17254;50.976;7.034;2022-07-05T01:06:57;14.20;99.90
30459;DHT22;17254;50.976;7.034;2022-07-05T01:07:29;14.20;99.90
30459;DHT22;17254;50.976;7.034;2022-07-05T01:08:00;14.20;99.90
30459;DHT22;17254;50.976;7.034;2022-07-05T01:08:35;14.10;99.90
30459;DHT22;17254;50.976;7.034;2022-07-05T01:09:07;14.00;99.90
30459;DHT22;17254;50.976;7.034;2022-07-05T01:09:40;14.10;99.90
30459;DHT22;17254;50.976;7.034;2022-07-05T01:10:11;14.20;99.90
30459;DHT22;17254;50.976;7.034;2022-07-05T01:10:44;14.20;99.90
30459;DHT22;17254;50.976;7.034;2022-07-05T01:11:15;14.20;99.90
30459;DHT22;17254;50.976;7.034;2022-07-05T01:11:48;14.20;99.90
30459;DHT22;17254;50.976;7.034;2022-07-05T01:12:22;14.20;99.90
30459;DHT22;17254;50.976;7.034;2022-07-05T01:12:53;14.10;99.90
30459;DHT22;17254;50.976;7.034;2022-07-05T01:13:26;14.00;99.90
30459;DHT22;17254;50.976;7.034;2022-07-05T01:13:58;14.10;99.90
30459;DHT22;17254;50.976;7.034;2022-07-05T01:14:30;14.00;99.90
30459;DHT22;17254;50.976;7.034;2022-07-05T01:15:02;13.90;99.90
30459;DHT22;17254;50.976;7.034;2022-07-05T01:15:34;13.80;99.90
30459;DHT22;17254;50.976;7.034;2022-07-05T01:16:05;13.70;99.90
30459;DHT22;17254;50.976;7.034;2022-07-05T01:16:38;13.70;99.90
30459;DHT22;17254;50.976;7.034;2022-07-05T01:17:11;13.60;99.90
30459;DHT22;17254;50.976;7.034;2022-07-05T01:17:43;13.60;99.90
30459;DHT22;17254;50.976;7.034;2022-07-05T01:18:15;13.60;99.90
30459;DHT22;17254;50.976;7.034;2022-07-05T01:18:47;13.60;99.90
30459;DHT22;17254;50.976;7.034;2022-07-05T01:19:19;13.50;99.90
30459;DHT22;17254;50.976;7.034;2022-07-05T01:19:51;13.50;99.90
30459;DHT22;17254;50.976;7.034;2022-07-05T01:20:23;13.50;99.90
30459;DHT22;17254;50.976;7.034;2022-07-05T01:20:54;13.50;99.90
30459;DHT22;17254;50.976;7.034;2022-07-05T01:21:27;13.50;99.90
30459;DHT22;17254;50.976;7.034;2022-07-05T01:22:01;13.50;99.90
30459;DHT22;17254;50.976;7.034;2022-07-05T01:22:49;13.40;99.90
30459;DHT22;17254;50.976;7.034;2022-07-05T01:23:22;13.50;99.90
30459;DHT22;17254;50.976;7.034;2022-07-05T01:23:54;13.40;99.90
30459;DHT22;17254;50.976;7.034;2022-07-05T01:24:26;13.40;99.90
30459;DHT22;17254;50.976;7.034;2022-07-05T01:24:57;13.40;99.90
30459;DHT22;17254;50.976;7.034;2022-07-05T01:25:30;13.40;99.90
30459;DHT22;17254;50.976;7.034;2022-07-05T01:26:01;13.40;99.90
30459;DHT22;17254;50.976;7.034;2022-07-05T01:26:33;13.40;99.90
30459;DHT22;17254;50.976;7.034;2022-07-05T01:27:06;13.40;99.90
30459;DHT22;17254;50.976;7.034;2022-07-05T01:27:38;13.40;99.90
30459;DHT22;17254;50.976;7.034;2022-07-05T01:28:09;13.40;99.90
30459;DHT22;17254;50.976;7.034;2022-07-05T01:28:40;13.40;99.90
30459;DHT22;17254;50.976;7.034;2022-07-05T01:29:12;13.40;99.90
30459;DHT22;17254;50.976;7.034;2022-07-05T01:29:43;13.40;99.90
30459;DHT22;17254;50.976;7.034;2022-07-05T01:30:15;13.40;99.90
30459;DHT22;17254;50.976;7.034;2022-07-05T01:30:47;13.40;99.90
30459;DHT22;17254;50.976;7.034;2022-07-05T01:31:18;13.40;99.90
30459;DHT22;17254;50.976;7.034;2022-07-05T01:31:49;13.40;99.90
30459;DHT22;17254;50.976;7.034;2022-07-05T01:32:20;13.40;99.90
30459;DHT22;17254;50.976;7.034;2022-07-05T01:32:52;13.40;99.90
30459;DHT22;17254;50.976;7.034;2022-07-05T01:33:27;13.40;99.90
30459;DHT22;17254;50.976;7.034;2022-07-05T01:33:59;13.40;99.90
30459;DHT22;17254;50.976;7.034;2022-07-05T01:34:31;13.40;99.90
30459;DHT22;17254;50.976;7.034;2022-07-05T01:35:02;13.40;99.90
30459;DHT22;17254;50.976;7.034;2022-07-05T01:35:35;13.40;99.90
30459;DHT22;17254;50.976;7.034;2022-07-05T01:36:08;13.40;99.90
30459;DHT22;17254;50.976;7.034;2022-07-05T01:36:41;13.40;99.90
30459;DHT22;17254;50.976;7.034;2022-07-05T01:37:12;13.40;99.90
30459;DHT22;17254;50.976;7.034;2022-07-05T01:37:46;13.40;99.90
30459;DHT22;17254;50.976;7.034;2022-07-05T01:38:17;13.40;99.90
30459;DHT22;17254;50.976;7.034;2022-07-05T01:38:49;13.50;99.90
30459;DHT22;17254;50.976;7.034;2022-07-05T01:39:21;13.50;99.90
30459;DHT22;17254;50.976;7.034;2022-07-05T01:39:52;13.50;99.90
30459;DHT22;17254;50.976;7.034;2022-07-05T01:40:24;13.40;99.90
30459;DHT22;17254;50.976;7.034;2022-07-05T01:40:56;13.40;99.90
30459;DHT22;17254;50.976;7.034;2022-07-05T01:41:27;13.50;99.90
30459;DHT22;17254;50.976;7.034;2022-07-05T01:41:59;13.40;99.90
30459;DHT22;17254;50.976;7.034;2022-07-05T01:42:31;13.40;99.90
30459;DHT22;17254;50.976;7.034;2022-07-05T01:43:03;13.40;99.90
30459;DHT22;17254;50.976;7.034;2022-07-05T01:43:34;13.40;99.90
30459;DHT22;17254;50.976;7.034;2022-07-05T01:44:06;13.40;99.90
30459;DHT22;17254;50.976;7.034;2022-07-05T01:44:38;13.30;99.90
30459;DHT22;17254;50.976;7.034;2022-07-05T01:45:09;13.40;99.90
30459;DHT22;17254;50.976;7.034;2022-07-05T01:45:43;13.40;99.90
30459;DHT22;17254;50.976;7.034;2022-07-05T01:46:15;13.50;99.90
30459;DHT22;17254;50.976;7.034;2022-07-05T01:46:51;13.50;99.90
30459;DHT22;17254;50.976;7.034;2022-07-05T01:47:26;13.50;99.90
30459;DHT22;17254;50.976;7.034;2022-07-05T01:47:57;13.40;99.90
30459;DHT22;17254;50.976;7.034;2022-07-05T01:48:29;13.40;99.90
30459;DHT22;17254;50.976;7.034;2022-07-05T01:49:06;13.30;99.90
30459;DHT22;17254;50.976;7.034;2022-07-05T01:49:41;13.30;99.90
30459;DHT22;17254;50.976;7.034;2022-07-05T01:50:16;13.30;99.90
30459;DHT22;17254;50.976;7.034;2022-07-05T01:50:56;13.20;99.90
30459;DHT22;17254;50.976;7.034;2022-07-05T01:51:31;13.20;99.90
30459;DHT22;17254;50.976;7.034;2022-07-05T01:52:08;13.20;99.90
30459;DHT22;17254;50.976;7.034;2022-07-05T01:52:43;13.20;99.90
30459;DHT22;17254;50.976;7.034;2022-07-05T01:53:22;13.20;99.90
30459;DHT22;17254;50.976;7.034;2022-07-05T01:53:56;13.20;99.90
30459;DHT22;17254;50.976;7.034;2022-07-05T01:54:28;13.20;99.90
30459;DHT22;17254;50.976;7.034;2022-07-05T01:54:59;13.20;99.90
30459;DHT22;17254;50.976;7.034;2022-07-05T01:55:32;13.20;99.90
30459;DHT22;17254;50.976;7.034;2022-07-05T01:56:04;13.20;99.90
30459;DHT22;17254;50.976;7.034;2022-07-05T01:56:37;13.20;99.90
30459;DHT22;17254;50.976;7.034;2022-07-05T01:57:08;13.20;99.90
30459;DHT22;17254;50.976;7.034;2022-07-05T01:57:41;13.20;99.90
30459;DHT22;17254;50.976;7.034;2022-07-05T01:58:12;13.20;99.90
30459;DHT22;17254;50.976;7.034;2022-07-05T01:58:44;13.20;99.90
30459;DHT22;17254;50.976;7.034;2022-07-05T01:59:17;13.20;99.90
30459;DHT22;17254;50.976;7.034;2022-07-05T01:59:48;13.20;99.90
30459;DHT22;17254;50.976;7.034;2022-07-05T02:00:19;13.20;99.90
30459;DHT22;17254;50.976;7.034;2022-07-05T02:00:54;13.20;99.90
30459;DHT22;17254;50.976;7.034;2022-07-05T02:01:33;13.20;99.90
30459;DHT22;17254;50.976;7.034;2022-07-05T02:02:04;13.30;99.90
30459;DHT22;17254;50.976;7.034;2022-07-05T02:02:40;13.20;99.90
30459;DHT22;17254;50.976;7.034;2022-07-05T02:03:12;13.30;99.90
30459;DHT22;17254;50.976;7.034;2022-07-05T02:03:43;13.30;99.90
30459;DHT22;17254;50.976;7.034;2022-07-05T02:04:16;13.30;99.90
30459;DHT22;17254;50.976;7.034;2022-07-05T02:04:48;13.30;99.90
30459;DHT22;17254;50.976;7.034;2022-07-05T02:05:20;13.30;99.90
30459;DHT22;17254;50.976;7.034;2022-07-05T02:05:52;13.30;99.90
30459;DHT22;17254;50.976;7.034;2022-07-05T02:06:25;13.40;99.90
30459;DHT22;17254;50.976;7.034;2022-07-05T02:06:56;13.40;99.90
30459;DHT22;17254;50.976;7.034;2022-07-05T02:07:28;13.40;99.90
30459;DHT22;17254;50.976;7.034;2022-07-05T02:08:00;13.40;99.90
30459;DHT22;17254;50.976;7.034;2022-07-05T02:08:32;13.40;99.90
30459;DHT22;17254;50.976;7.034;2022-07-05T02:09:05;13.40;99.90
30459;DHT22;17254;50.976;7.034;2022-07-05T02:09:38;13.40;99.90
30459;DHT22;17254;50.976;7.034;2022-07-05T02:10:09;13.40;99.90
30459;DHT22;17254;50.976;7.034;2022-07-05T02:10:41;13.40;99.90
30459;DHT22;17254;50.976;7.034;2022-07-05T02:11:12;13.40;99.90
30459;DHT22;17254;50.976;7.034;2022-07-05T02:11:43;13.50;99.90
30459;DHT22;17254;50.976;7.034;2022-07-05T02:12:14;13.50;99.90
30459;DHT22;17254;50.976;7.034;2022-07-05T02:12:46;13.50;99.90
30459;DHT22;17254;50.976;7.034;2022-07-05T02:13:17;13.50;99.90
30459;DHT22;17254;50.976;7.034;2022-07-05T02:13:49;13.40;99.90
30459;DHT22;17254;50.976;7.034;2022-07-05T02:14:20;13.50;99.90
30459;DHT22;17254;50.976;7.034;2022-07-05T02:15:00;13.50;99.90
30459;DHT22;17254;50.976;7.034;2022-07-05T02:15:31;13.50;99.90
30459;DHT22;17254;50.976;7.034;2022-07-05T02:16:02;13.50;99.90
30459;DHT22;17254;50.976;7.034;2022-07-05T02:16:34;13.50;99.90
30459;DHT22;17254;50.976;7.034;2022-07-05T02:17:05;13.50;99.90
30459;DHT22;17254;50.976;7.034;2022-07-05T02:17:38;13.50;99.90
30459;DHT22;17254;50.976;7.034;2022-07-05T02:18:09;13.50;99.90
30459;DHT22;17254;50.976;7.034;2022-07-05T02:18:43;13.50;99.90
30459;DHT22;17254;50.976;7.034;2022-07-05T02:19:15;13.50;99.90
30459;DHT22;17254;50.976;7.034;2022-07-05T02:19:48;13.50;99.90
30459;DHT22;17254;50.976;7.034;2022-07-05T02:20:19;13.50;99.90
30459;DHT22;17254;50.976;7.034;2022-07-05T02:20:51;13.60;99.90
30459;DHT22;17254;50.976;7.034;2022-07-05T02:21:22;13.60;99.90
30459;DHT22;17254;50.976;7.034;2022-07-05T02:21:56;13.60;99.90
30459;DHT22;17254;50.976;7.034;2022-07-05T02:22:28;13.60;99.90
30459;DHT22;17254;50.976;7.034;2022-07-05T02:22:59;13.60;99.90
30459;DHT22;17254;50.976;7.034;2022-07-05T02:23:31;13.60;99.90
30459;DHT22;17254;50.976;7.034;2022-07-05T02:24:04;13.60;99.90
30459;DHT22;17254;50.976;7.034;2022-07-05T02:24:40;13.60;99.90
30459;DHT22;17254;50.976;7.034;2022-07-05T02:25:23;13.60;99.90
30459;DHT22;17254;50.976;7.034;2022-07-05T02:25:56;13.60;99.90
30459;DHT22;17254;50.976;7.034;2022-07-05T02:26:27;13.60;99.90
30459;DHT22;17254;50.976;7.034;2022-07-05T02:26:59;13.60;99.90
30459;DHT22;17254;50.976;7.034;2022-07-05T02:27:31;13.60;99.90
30459;DHT22;17254;50.976;7.034;2022-07-05T02:28:03;13.50;99.90
30459;DHT22;17254;50.976;7.034;2022-07-05T02:28:35;13.50;99.90
30459;DHT22;17254;50.976;7.034;2022-07-05T02:29:07;13.50;99.90
30459;DHT22;17254;50.976;7.034;2022-07-05T02:29:40;13.50;99.90
30459;DHT22;17254;50.976;7.034;2022-07-05T02:30:11;13.50;99.90
30459;DHT22;17254;50.976;7.034;2022-07-05T02:30:45;13.50;99.90
30459;DHT22;17254;50.976;7.034;2022-07-05T02:31:16;13.50;99.90
30459;DHT22;17254;50.976;7.034;2022-07-05T02:31:49;13.50;99.90
30459;DHT22;17254;50.976;7.034;2022-07-05T02:32:22;13.50;99.90
30459;DHT22;17254;50.976;7.034;2022-07-05T02:32:54;13.50;99.90
30459;DHT22;17254;50.976;7.034;2022-07-05T02:33:25;13.60;99.90
30459;DHT22;17254;50.976;7.034;2022-07-05T02:33:57;13.50;99.90
30459;DHT22;17254;50.976;7.034;2022-07-05T02:34:29;13.60;99.90
30459;DHT22;17254;50.976;7.034;2022-07-05T02:35:01;13.60;99.90
30459;DHT22;17254;50.976;7.034;2022-07-05T02:35:33;13.60;99.90
30459;DHT22;17254;50.976;7.034;2022-07-05T02:36:09;13.70;99.90
30459;DHT22;17254;50.976;7.034;2022-07-05T02:36:40;13.60;99.90
30459;DHT22;17254;50.976;7.034;2022-07-05T02:37:15;13.70;99.90
30459;DHT22;17254;50.976;7.034;2022-07-05T02:37:46;13.60;99.90
30459;DHT22;17254;50.976;7.034;2022-07-05T02:38:17;13.70;99.90
30459;DHT22;17254;50.976;7.034;2022-07-05T02:38:51;13.70;99.90
30459;DHT22;17254;50.976;7.034;2022-07-05T02:39:22;13.70;99.90
30459;DHT22;17254;50.976;7.034;2022-07-05T02:39:56;13.60;99.90
30459;DHT22;17254;50.976;7.034;2022-07-05T02:40:28;13.60;99.90
30459;DHT22;17254;50.976;7.034;2022-07-05T02:40:59;13.60;99.90
30459;DHT22;17254;50.976;7.034;2022-07-05T02:41:30;13.60;99.90
30459;DHT22;17254;50.976;7.034;2022-07-05T02:42:03;13.60;99.90
30459;DHT22;17254;50.976;7.034;2022-07-05T02:42:35;13.60;99.90
30459;DHT22;17254;50.976;7.034;2022-07-05T02:43:06;13.60;99.90
30459;DHT22;17254;50.976;7.034;2022-07-05T02:43:38;13.60;99.90
30459;DHT22;17254;50.976;7.034;2022-07-05T02:44:10;13.60;99.90
30459;DHT22;17254;50.976;7.034;2022-07-05T02:44:42;13.60;99.90
30459;DHT22;17254;50.976;7.034;2022-07-05T02:45:14;13.60;99.90
30459;DHT22;17254;50.976;7.034;2022-07-05T02:45:47;13.60;99.90
30459;DHT22;17254;50.976;7.034;2022-07-05T02:46:18;13.60;99.90
30459;DHT22;17254;50.976;7.034;2022-07-05T02:46:49;13.60;99.90
30459;DHT22;17254;50.976;7.034;2022-07-05T02:47:21;13.60;99.90
30459;DHT22;17254;50.976;7.034;2022-07-05T02:47:53;13.60;99.90
30459;DHT22;17254;50.976;7.034;2022-07-05T02:48:24;13.60;99.90
30459;DHT22;17254;50.976;7.034;2022-07-05T02:48:55;13.60;99.90
30459;DHT22;17254;50.976;7.034;2022-07-05T02:49:27;13.60;99.90
30459;DHT22;17254;50.976;7.034;2022-07-05T02:49:58;13.60;99.90
30459;DHT22;17254;50.976;7.034;2022-07-05T02:50:32;13.60;99.90
30459;DHT22;17254;50.976;7.034;2022-07-05T02:51:05;13.60;99.90
30459;DHT22;17254;50.976;7.034;2022-07-05T02:51:37;13.60;99.90
30459;DHT22;17254;50.976;7.034;2022-07-05T02:52:12;13.60;99.90
30459;DHT22;17254;50.976;7.034;2022-07-05T02:52:43;13.60;99.90
30459;DHT22;17254;50.976;7.034;2022-07-05T02:53:15;13.60;99.90
30459;DHT22;17254;50.976;7.034;2022-07-05T02:53:47;13.70;99.90
30459;DHT22;17254;50.976;7.034;2022-07-05T02:54:21;13.60;99.90
30459;DHT22;17254;50.976;7.034;2022-07-05T02:54:52;13.60;99.90
30459;DHT22;17254;50.976;7.034;2022-07-05T02:55:25;13.60;99.90
30459;DHT22;17254;50.976;7.034;2022-07-05T02:55:57;13.70;99.90
30459;DHT22;17254;50.976;7.034;2022-07-05T02:56:28;13.70;99.90
30459;DHT22;17254;50.976;7.034;2022-07-05T02:57:00;13.70;99.90
30459;DHT22;17254;50.976;7.034;2022-07-05T02:57:32;13.80;99.90
30459;DHT22;17254;50.976;7.034;2022-07-05T02:58:06;13.80;99.90
30459;DHT22;17254;50.976;7.034;2022-07-05T02:58:39;13.80;99.90
30459;DHT22;17254;50.976;7.034;2022-07-05T02:59:11;13.80;99.90
30459;DHT22;17254;50.976;7.034;2022-07-05T02:59:43;13.80;99.90
30459;DHT22;17254;50.976;7.034;2022-07-05T03:00:16;13.80;99.90
30459;DHT22;17254;50.976;7.034;2022-07-05T03:00:51;13.80;99.90
30459;DHT22;17254;50.976;7.034;2022-07-05T03:01:25;13.80;99.90
30459;DHT22;17254;50.976;7.034;2022-07-05T03:01:57;13.70;99.90
30459;DHT22;17254;50.976;7.034;2022-07-05T03:02:28;13.70;99.90
30459;DHT22;17254;50.976;7.034;2022-07-05T03:03:00;13.80;99.90
30459;DHT22;17254;50.976;7.034;2022-07-05T03:03:33;13.80;99.90
30459;DHT22;17254;50.976;7.034;2022-07-05T03:04:05;13.80;99.90
30459;DHT22;17254;50.976;7.034;2022-07-05T03:04:37;13.80;99.90
30459;DHT22;17254;50.976;7.034;2022-07-05T03:05:08;13.90;99.90
30459;DHT22;17254;50.976;7.034;2022-07-05T03:05:42;13.90;99.90
30459;DHT22;17254;50.976;7.034;2022-07-05T03:06:13;13.90;99.90
30459;DHT22;17254;50.976;7.034;2022-07-05T03:06:44;13.90;99.90
30459;DHT22;17254;50.976;7.034;2022-07-05T03:07:16;13.80;99.90
30459;DHT22;17254;50.976;7.034;2022-07-05T03:07:48;13.80;99.90
30459;DHT22;17254;50.976;7.034;2022-07-05T03:08:19;13.70;99.90
30459;DHT22;17254;50.976;7.034;2022-07-05T03:08:51;13.70;99.90
30459;DHT22;17254;50.976;7.034;2022-07-05T03:09:24;13.60;99.90
30459;DHT22;17254;50.976;7.034;2022-07-05T03:09:55;13.60;99.90
30459;DHT22;17254;50.976;7.034;2022-07-05T03:10:28;13.60;99.90
30459;DHT22;17254;50.976;7.034;2022-07-05T03:11:01;13.60;99.90
30459;DHT22;17254;50.976;7.034;2022-07-05T03:11:32;13.60;99.90
30459;DHT22;17254;50.976;7.034;2022-07-05T03:12:05;13.60;99.90
30459;DHT22;17254;50.976;7.034;2022-07-05T03:12:38;13.70;99.90
30459;DHT22;17254;50.976;7.034;2022-07-05T03:13:12;13.70;99.90
30459;DHT22;17254;50.976;7.034;2022-07-05T03:13:46;13.70;99.90
30459;DHT22;17254;50.976;7.034;2022-07-05T03:14:18;13.60;99.90
30459;DHT22;17254;50.976;7.034;2022-07-05T03:14:51;13.70;99.90
30459;DHT22;17254;50.976;7.034;2022-07-05T03:15:25;13.70;99.90
30459;DHT22;17254;50.976;7.034;2022-07-05T03:15:57;13.70;99.90
30459;DHT22;17254;50.976;7.034;2022-07-05T03:16:28;13.60;99.90
30459;DHT22;17254;50.976;7.034;2022-07-05T03:17:00;13.70;99.90
30459;DHT22;17254;50.976;7.034;2022-07-05T03:17:32;13.60;99.90
30459;DHT22;17254;50.976;7.034;2022-07-05T03:18:03;13.60;99.90
30459;DHT22;17254;50.976;7.034;2022-07-05T03:18:37;13.70;99.90
30459;DHT22;17254;50.976;7.034;2022-07-05T03:19:10;13.60;99.90
30459;DHT22;17254;50.976;7.034;2022-07-05T03:19:41;13.60;99.90
30459;DHT22;17254;50.976;7.034;2022-07-05T03:20:15;13.60;99.90
30459;DHT22;17254;50.976;7.034;2022-07-05T03:20:46;13.60;99.90
30459;DHT22;17254;50.976;7.034;2022-07-05T03:21:18;13.60;99.90
30459;DHT22;17254;50.976;7.034;2022-07-05T03:21:50;13.60;99.90
30459;DHT22;17254;50.976;7.034;2022-07-05T03:22:21;13.60;99.90
30459;DHT22;17254;50.976;7.034;2022-07-05T03:22:53;13.60;99.90
30459;DHT22;17254;50.976;7.034;2022-07-05T03:23:30;13.50;99.90